createdAt,value
2019-04-30T00:00:34.712Z,88.97
2019-04-30T00:05:30.935Z,88.59
2019-04-30T00:10:35.390Z,88.77
2019-04-30T00:15:25.746Z,88.73
2019-04-30T00:20:21.841Z,88.86
2019-04-30T00:25:19.730Z,88.25
2019-04-30T00:30:16.012Z,88.21
2019-04-30T00:35:16.283Z,88.03
2019-04-30T00:40:12.188Z,87.30
2019-04-30T00:45:10.004Z,86.54
2019-04-30T00:50:07.163Z,85.27
2019-04-30T00:55:09.056Z,85.42
2019-04-30T01:00:06.330Z,85.58
2019-04-30T01:05:13.092Z,87.17
2019-04-30T01:10:11.325Z,87.57
2019-04-30T01:15:11.114Z,87.98
2019-04-30T01:20:06.289Z,88.18
2019-04-30T01:25:12.030Z,89.23
2019-04-30T01:30:05.680Z,89.51
2019-04-30T01:35:01.707Z,89.39
2019-04-30T01:39:58.900Z,89.61
2019-04-30T01:44:55.567Z,89.20
2019-04-30T01:49:51.497Z,90.03
2019-04-30T01:54:49.060Z,90.50
2019-04-30T02:00:02.033Z,90.55
2019-04-30T02:04:59.189Z,90.41
2019-04-30T02:09:55.181Z,90.39
2019-04-30T02:14:51.825Z,90.38
2019-04-30T02:19:54.729Z,90.14
2019-04-30T02:24:45.799Z,90.08
2019-04-30T02:29:41.699Z,89.72
2019-04-30T02:34:41.153Z,89.59
2019-04-30T02:39:40.124Z,89.94
2019-04-30T02:44:36.216Z,90.74
2019-04-30T02:49:32.250Z,90.88
2019-04-30T02:54:29.838Z,91.12
2019-04-30T02:59:25.910Z,90.71
2019-04-30T03:04:21.911Z,90.93
2019-04-30T03:09:20.179Z,90.84
2019-04-30T03:14:15.684Z,90.60
2019-04-30T03:19:29.483Z,90.39
2019-04-30T03:24:25.772Z,89.86
2019-04-30T03:29:24.041Z,89.57
2019-04-30T03:34:25.240Z,89.15
2019-04-30T03:39:19.735Z,89.15
2019-04-30T03:44:21.669Z,88.80
2019-04-30T03:49:13.621Z,89.63
2019-04-30T03:54:10.261Z,88.92
2019-04-30T03:59:06.302Z,88.70
2019-04-30T04:04:20.904Z,88.59
2019-04-30T04:09:24.338Z,88.31
2019-04-30T04:14:20.351Z,88.03
2019-04-30T04:19:16.274Z,87.52
2019-04-30T04:24:12.405Z,88.39
2019-04-30T04:29:09.516Z,88.61
2019-04-30T04:34:06.246Z,88.81
2019-04-30T04:39:03.579Z,88.36
2019-04-30T04:44:00.610Z,88.90
2019-04-30T04:48:59.481Z,88.96
2019-04-30T04:53:54.381Z,88.96
2019-04-30T04:58:50.408Z,89.07
2019-04-30T05:03:48.830Z,88.45
2019-04-30T05:08:44.324Z,88.32
2019-04-30T05:13:40.249Z,87.47
2019-04-30T05:18:36.287Z,87.08
2019-04-30T05:23:32.205Z,87.20
2019-04-30T05:28:29.864Z,87.60
2019-04-30T05:33:25.965Z,88.36
2019-04-30T05:38:21.931Z,88.23
2019-04-30T05:48:08.918Z,87.29
2019-04-30T05:53:04.918Z,85.95
2019-04-30T05:58:01.459Z,86.05
2019-04-30T06:02:59.482Z,85.79
2019-04-30T06:07:55.569Z,86.05
2019-04-30T06:12:56.495Z,87.48
2019-04-30T06:18:00.303Z,87.93
2019-04-30T06:22:54.887Z,87.56
2019-04-30T06:27:51.120Z,87.43
2019-04-30T06:32:49.465Z,85.97
2019-04-30T06:37:45.407Z,85.33
2019-04-30T06:42:41.465Z,86.22
2019-04-30T06:47:38.910Z,85.61
2019-04-30T06:52:35.140Z,85.69
2019-04-30T06:57:31.069Z,85.14
2019-04-30T07:02:30.642Z,83.85
2019-04-30T07:07:36.286Z,84.39
2019-04-30T07:12:28.562Z,84.93
2019-04-30T07:17:24.304Z,83.63
2019-04-30T07:22:36.062Z,82.94
2019-04-30T07:27:23.728Z,82.55
2019-04-30T07:32:15.895Z,80.99
2019-04-30T07:37:20.501Z,79.23
2019-04-30T07:42:09.685Z,78.44
2019-04-30T07:47:05.645Z,79.40
2019-04-30T07:52:02.473Z,78.64
2019-04-30T07:57:00.529Z,79.41
2019-04-30T08:02:07.614Z,77.96
2019-04-30T08:06:56.765Z,76.80
2019-04-30T08:11:52.784Z,78.93
2019-04-30T08:16:50.976Z,77.20
2019-04-30T08:21:48.501Z,78.09
2019-04-30T08:26:44.565Z,75.14
2019-04-30T08:31:40.942Z,77.83
2019-04-30T08:36:38.658Z,77.53
2019-04-30T08:41:34.800Z,74.45
2019-04-30T08:46:30.733Z,71.99
2019-04-30T08:51:30.528Z,69.90
2019-04-30T08:56:24.596Z,71.88
2019-04-30T09:01:20.602Z,73.23
2019-04-30T09:06:19.562Z,70.79
2019-04-30T09:11:25.047Z,71.98
2019-04-30T09:16:13.514Z,74.04
2019-04-30T09:21:10.125Z,72.12
2019-04-30T09:26:06.024Z,71.61
2019-04-30T09:31:03.250Z,69.49
2019-04-30T09:35:59.608Z,68.17
2019-04-30T09:40:55.777Z,69.99
2019-04-30T09:45:51.728Z,66.14
2019-04-30T09:50:50.422Z,64.96
2019-04-30T09:55:46.631Z,65.45
2019-04-30T10:00:42.649Z,64.01
2019-04-30T10:05:39.106Z,66.64
2019-04-30T10:10:38.753Z,65.45
2019-04-30T10:15:36.750Z,64.74
2019-04-30T10:20:47.775Z,62.98
2019-04-30T10:25:43.793Z,61.78
2019-04-30T10:30:39.737Z,65.02
2019-04-30T10:35:35.691Z,64.12
2019-04-30T10:40:31.617Z,60.78
2019-04-30T10:45:28.817Z,60.11
2019-04-30T10:50:32.207Z,61.99
2019-04-30T10:55:28.717Z,56.63
2019-04-30T11:00:39.016Z,53.05
2019-04-30T11:05:35.315Z,54.78
2019-04-30T11:10:31.341Z,52.08
2019-04-30T11:15:28.840Z,58.22
2019-04-30T11:20:35.619Z,58.14
2019-04-30T11:25:32.501Z,53.93
2019-04-30T11:30:29.706Z,51.32
2019-04-30T11:35:26.255Z,54.67
2019-04-30T11:40:31.714Z,55.14
2019-04-30T11:45:26.514Z,53.63
2019-04-30T11:50:23.672Z,55.11
2019-04-30T11:55:19.895Z,53.09
2019-04-30T12:00:24.149Z,50.61
2019-04-30T12:05:20.922Z,54.09
2019-04-30T12:10:19.474Z,51.92
2019-04-30T12:15:15.701Z,53.02
2019-04-30T12:20:12.073Z,49.48
2019-04-30T12:25:10.055Z,51.82
2019-04-30T12:30:06.722Z,54.36
2019-04-30T12:35:05.106Z,53.25
2019-04-30T12:40:01.341Z,54.38
2019-04-30T12:44:57.272Z,52.56
2019-04-30T12:50:06.946Z,56.62
2019-04-30T12:55:15.197Z,52.44
2019-04-30T13:00:09.424Z,48.91
2019-04-30T13:05:05.894Z,47.33
2019-04-30T13:10:12.934Z,51.36
2019-04-30T13:15:12.367Z,49.44
2019-04-30T13:20:18.604Z,51.55
2019-04-30T13:25:14.616Z,51.33
2019-04-30T13:30:20.244Z,47.59
2019-04-30T13:35:19.007Z,50.60
2019-04-30T13:40:23.369Z,49.21
2019-04-30T13:45:20.889Z,49.51
2019-04-30T13:50:20.981Z,48.28
2019-04-30T13:55:19.081Z,46.37
2019-04-30T14:00:30.138Z,46.53
2019-04-30T14:05:29.637Z,48.20
2019-04-30T14:10:29.423Z,47.55
2019-04-30T14:15:38.560Z,48.39
2019-04-30T14:20:37.100Z,47.27
2019-04-30T14:25:36.976Z,47.80
2019-04-30T14:30:34.688Z,47.37
2019-04-30T14:35:33.512Z,45.77
2019-04-30T14:40:30.536Z,45.02
2019-04-30T14:45:28.994Z,47.87
2019-04-30T14:50:35.175Z,47.55
2019-04-30T14:55:42.354Z,46.75
2019-04-30T15:00:59.227Z,47.13
2019-04-30T15:05:54.936Z,47.34
2019-04-30T15:10:50.865Z,47.13
2019-04-30T15:15:46.897Z,49.31
2019-04-30T15:20:49.598Z,46.52
2019-04-30T15:25:45.501Z,47.79
2019-04-30T15:30:42.102Z,45.93
2019-04-30T15:35:38.171Z,46.80
2019-04-30T15:40:34.099Z,47.07
2019-04-30T15:45:30.230Z,47.26
2019-04-30T15:50:39.281Z,47.39
2019-04-30T15:55:35.346Z,46.19
2019-04-30T16:00:31.887Z,47.95
2019-04-30T16:05:29.730Z,48.67
2019-04-30T16:10:36.794Z,49.18
2019-04-30T16:15:32.810Z,48.79
2019-04-30T16:20:39.278Z,45.51
2019-04-30T16:25:35.724Z,47.23
2019-04-30T16:30:31.710Z,47.29
2019-04-30T16:35:29.573Z,46.06
2019-04-30T16:40:25.706Z,46.98
2019-04-30T16:45:21.746Z,46.87
2019-04-30T16:50:19.447Z,47.02
2019-04-30T16:55:16.077Z,47.74
2019-04-30T17:00:13.307Z,47.56
2019-04-30T17:05:23.267Z,46.67
2019-04-30T17:10:33.328Z,46.17
2019-04-30T17:15:31.161Z,46.63
2019-04-30T17:20:41.026Z,46.68
2019-04-30T17:25:37.083Z,47.07
2019-04-30T17:30:33.004Z,45.16
2019-04-30T17:35:29.025Z,46.15
2019-04-30T17:40:25.224Z,45.96
2019-04-30T17:45:21.423Z,48.74
2019-04-30T17:50:19.021Z,48.41
2019-04-30T17:55:15.246Z,49.53
2019-04-30T18:00:18.781Z,51.01
2019-04-30T18:05:11.744Z,50.29
2019-04-30T18:10:13.791Z,51.48
2019-04-30T18:15:15.310Z,50.36
2019-04-30T18:20:36.773Z,51.79
2019-04-30T18:25:37.275Z,52.21
2019-04-30T18:30:35.154Z,53.71
2019-04-30T18:35:31.311Z,53.92
2019-04-30T18:40:27.244Z,55.27
2019-04-30T18:45:23.174Z,56.66
2019-04-30T18:50:20.669Z,57.00
2019-04-30T18:55:16.700Z,59.42
2019-04-30T19:00:14.957Z,60.89
2019-04-30T19:05:13.752Z,61.68
2019-04-30T19:10:17.441Z,61.44
2019-04-30T19:15:18.056Z,62.93
2019-04-30T19:20:18.815Z,63.52
2019-04-30T19:25:15.087Z,64.24
2019-04-30T19:30:11.314Z,65.37
2019-04-30T19:35:09.024Z,65.62
2019-04-30T19:40:08.564Z,65.69
2019-04-30T19:45:10.071Z,65.04
2019-04-30T19:50:04.277Z,64.97
2019-04-30T19:55:00.199Z,64.68
2019-04-30T19:59:56.271Z,64.29
2019-04-30T20:04:52.201Z,65.20
2019-04-30T20:10:00.198Z,65.81
2019-04-30T20:14:46.034Z,66.13
2019-04-30T20:19:41.964Z,66.05
2019-04-30T20:24:39.410Z,66.73
2019-04-30T20:29:35.485Z,67.12
2019-04-30T20:34:31.423Z,67.78
2019-04-30T20:39:44.362Z,68.70
2019-04-30T20:44:40.304Z,68.92
2019-04-30T20:49:36.242Z,69.40
2019-04-30T20:54:32.281Z,69.39
2019-04-30T20:59:29.138Z,69.59
2019-04-30T21:04:25.282Z,70.06
2019-04-30T21:09:21.229Z,70.37
2019-04-30T21:14:19.184Z,70.81
2019-04-30T21:19:15.082Z,71.61
2019-04-30T21:24:11.010Z,72.43
2019-04-30T21:29:13.159Z,73.65
2019-04-30T21:34:15.770Z,74.01
2019-04-30T21:39:11.705Z,74.65
2019-04-30T21:44:07.651Z,75.14
2019-04-30T21:49:03.574Z,75.60
2019-04-30T21:53:59.519Z,75.73
2019-04-30T21:58:55.450Z,76.06
2019-04-30T22:03:51.578Z,76.79
2019-04-30T22:08:48.577Z,77.16
2019-04-30T22:13:44.780Z,77.79
2019-04-30T22:18:40.725Z,78.30
2019-04-30T22:23:36.650Z,78.60
2019-04-30T22:28:32.976Z,79.06
2019-04-30T22:33:29.307Z,80.03
2019-04-30T22:38:30.254Z,80.46
2019-04-30T22:43:26.299Z,80.77
2019-04-30T22:48:22.226Z,80.43
2019-04-30T22:53:18.149Z,81.87
2019-04-30T22:58:14.186Z,82.21
2019-04-30T23:03:12.227Z,82.37
2019-04-30T23:08:08.163Z,82.70
2019-04-30T23:13:04.200Z,82.79
2019-04-30T23:18:00.201Z,83.67
2019-04-30T23:22:56.135Z,83.88
2019-04-30T23:27:52.065Z,85.81
2019-04-30T23:32:47.995Z,85.14
2019-04-30T23:37:43.984Z,84.24
2019-04-30T23:42:39.910Z,85.71
2019-04-30T23:47:35.837Z,85.80
2019-04-30T23:52:31.769Z,85.15
2019-04-30T23:57:27.810Z,84.37
